• Join FlightAware (Why Join?)
  • Login
  • US Flag 
08:21PM EDT


 

Airport Tracker/Info


-or-


 

Live Flight TrackerFlight Track Log ✈ UAE161 ✈ 24-Apr-2013 ✈ OMDB / DXB - EIDW / DUB

Flight Track Log - Related Links

Times and Time Zones

All times are in EDT time to prevent confusion due to time zone crossing. See the UAE161 flight status page for this flight to view local times or setup timezone preferences in your user account.

Time Position Orientation Groundspeed Altitude Reporting Facility
EDT Latitude Longitude Course Direction KTS MPH feet Rate Location/Type
12:00AM 25.2640 55.3510 61° Northeast 194 223 300  Level FlightAware
12:00AM 25.2730 55.3360 304° West 198 228 900 2,400 Climbing FlightAware
12:00AM 25.2920 55.2990 300° West 216 249 2,500 2,760 Climbing FlightAware
12:01AM 25.3090 55.2700 303° West 230 265 3,700 2,460 Climbing FlightAware
12:01AM 25.3220 55.2460 301° West 230 265 4,800 3,180 Climbing FlightAware
12:02AM 25.3480 55.1890 297° West 235 270 7,200 2,820 Climbing FlightAware
12:03AM 25.3430 55.1520 262° West 259 298 8,100 2,160 Climbing FlightAware
12:03AM 25.3340 55.1120 256° West 273 314 9,400 2,460 Climbing FlightAware
12:04AM 25.3240 55.0630 257° West 289 333 10,800 1,980 Climbing FlightAware
12:05AM 25.3360 54.9680 278° West 339 390 12,600 2,280 Climbing FlightAware
12:05AM 25.3550 54.8920 285° West 342 394 14,800 2,760 Climbing FlightAware
12:06AM 25.3700 54.8330 286° West 349 402 16,300 2,400 Climbing FlightAware
12:07AM 25.3940 54.7380 286° West 362 417 18,400 1,260 Climbing FlightAware
12:08AM 25.4120 54.6610 285° West 363 418 18,600 120 Climbing FlightAware
12:08AM 25.4270 54.6000 285° West 363 418 18,600  Level FlightAware
12:09AM 25.4420 54.5390 285° West 363 418 18,600  Level FlightAware
12:10AM 25.4570 54.4770 285° West 363 418 18,600  Level FlightAware
12:10AM 25.4710 54.4160 284° West 363 418 18,600 1,320 Level FlightAware
12:13AM 25.6485 54.2452 319° Northwest  Level Estimated
12:14AM 25.7317 54.1650 319° Northwest  Level Estimated
12:15AM 25.8148 54.0846 319° Northwest  Level Estimated
12:16AM 25.8978 54.0042 319° Northwest  Level Estimated
12:17AM 25.9809 53.9236 319° Northwest  Level Estimated
12:18AM 26.0638 53.8429 319° Northwest  Level Estimated
12:19AM 26.1467 53.7621 319° Northwest  Level Estimated
12:20AM 26.2296 53.6812 319° Northwest  Level Estimated
12:20AM 25.7560 53.1670 319° Northwest 424 488 32,000  Level FlightAware
12:20AM 25.7680 53.0790 279° West 424 488 32,000  Level FlightAware
12:21AM 25.7990 53.0020 294° West 425 489 32,000 120 Level FlightAware
12:22AM 25.8390 52.9200 298° West 423 487 32,200 540 Climbing FlightAware
12:22AM 25.8780 52.8390 298° West 421 484 32,800 1,020 Climbing FlightAware
12:23AM 25.9210 52.7490 298° West 419 482 33,700 840 Climbing FlightAware
12:24AM 25.9540 52.6810 298° West 424 488 34,000 180 Climbing FlightAware
12:24AM 25.9930 52.5980 298° West 420 483 34,000  Level FlightAware
12:25AM 26.0250 52.5310 298° West 420 483 34,000  Level FlightAware
12:26AM 26.0710 52.4350 298° West 419 482 34,000  Level FlightAware
12:27AM 26.1070 52.3590 298° West 419 482 34,000  Level FlightAware
12:27AM 26.1490 52.2720 298° West 418 481 34,000  Level FlightAware
12:28AM 26.1840 52.1970 297° West 417 480 34,000  Level FlightAware
12:29AM 26.2250 52.1110 298° West 416 479 34,000  Level FlightAware
12:29AM 26.2600 52.0360 298° West 416 479 34,000  Level FlightAware
12:30AM 26.2940 51.9660 298° West 415 478 34,000  Level FlightAware
12:31AM 26.3320 51.8830 297° West 413 475 34,000  Level FlightAware
12:32AM 26.3760 51.7900 298° West 410 472 34,000  Level FlightAware
12:32AM 26.4110 51.7140 297° West 414 476 34,000  Level FlightAware
12:33AM 26.4450 51.6410 297° West 409 471 34,000  Level FlightAware
12:34AM 26.4840 51.5570 297° West 410 472 34,000  Level FlightAware
12:34AM 26.5210 51.4780 298° West 416 479 34,000  Level FlightAware
12:35AM 26.5620 51.3900 298° West 412 474 34,000  Level FlightAware
12:36AM 26.5950 51.3180 297° West 412 474 34,000  Level FlightAware
12:36AM 26.6300 51.2370 296° West 412 474 34,000  Level FlightAware
12:37AM 26.6640 51.1490 293° West 415 478 34,000  Level FlightAware
12:38AM 26.6920 51.0770 294° West 415 478 34,000  Level FlightAware
12:38AM 26.7240 50.9930 293° West 417 480 34,000  Level FlightAware
12:39AM 26.7710 50.8710 293° West 420 483 34,000  Level FlightAware
12:40AM 26.7960 50.8080 294° West 420 483 34,000  Level FlightAware
12:41AM 26.8260 50.7280 293° West 420 483 34,000  Level FlightAware
12:41AM 26.8520 50.6600 293° West 420 483 34,000  Level FlightAware
12:42AM 26.8920 50.5580 294° West 420 483 34,000  Level FlightAware
12:43AM 26.9220 50.4790 293° West 420 483 34,000  Level FlightAware
12:44AM 26.9480 50.4110 293° West 420 483 34,000  Level FlightAware
12:44AM 26.9730 50.3430 292° West 420 483 34,000  Level FlightAware
12:45AM 27.0060 50.2580 294° West 420 483 34,000  Level FlightAware
12:46AM 27.0310 50.1890 292° West 420 483 34,000  Level FlightAware
12:46AM 27.0570 50.1210 293° West 420 483 34,000  Level FlightAware
12:47AM 27.0830 50.0530 293° West 420 483 34,000  Level FlightAware
12:48AM 27.1090 49.9840 293° West 420 483 34,000  Level FlightAware
12:49AM 27.1410 49.8990 293° West 420 483 34,000  Level FlightAware
12:49AM 27.1670 49.8310 293° West 420 483 34,000  Level FlightAware
12:50AM 27.1930 49.7620 293° West 420 483 34,000  Level FlightAware
12:51AM 27.2190 49.6940 293° West 420 483 34,000  Level FlightAware
12:51AM 27.2440 49.6260 292° West 420 483 34,000  Level FlightAware
12:52AM 27.2770 49.5400 293° West 420 483 34,000  Level FlightAware
12:55AM 27.4809 49.3376 319° Northwest  Level Estimated
12:56AM 27.5635 49.2554 319° Northwest  Level Estimated
12:56AM 28.0220 49.3340 319° Northwest 429 494 34,000  Level FlightAware
12:57AM 28.0900 49.2870 329° Northwest 428 493 34,000  Level FlightAware
12:58AM 28.1700 49.2310 328° Northwest 428 493 34,000  Level FlightAware
12:58AM 28.2460 49.1780 328° Northwest 428 493 34,000  Level FlightAware
12:59AM 28.3170 49.1290 329° Northwest 431 496 34,000  Level FlightAware
01:00AM 28.3950 49.0750 329° Northwest 435 501 34,000  Level FlightAware
01:00AM 28.4520 49.0350 328° Northwest 431 496 34,000  Level FlightAware
01:01AM 28.5230 48.9860 329° Northwest 427 491 34,000  Level FlightAware
01:02AM 28.6000 48.9310 328° Northwest 425 489 34,000  Level FlightAware
01:03AM 28.6790 48.8760 329° Northwest 422 486 34,000  Level FlightAware
01:03AM 28.7410 48.8320 328° Northwest 420 483 34,000  Level FlightAware
01:04AM 28.8120 48.7820 328° Northwest 419 482 34,000  Level FlightAware
01:05AM 28.8740 48.7390 329° Northwest 419 482 34,000  Level FlightAware
01:06AM 28.9800 48.6640 328° Northwest 419 482 34,000  Level FlightAware
01:06AM 29.0340 48.6250 328° Northwest 419 482 34,000  Level FlightAware
01:07AM 29.1190 48.5660 329° Northwest 419 482 34,000  Level FlightAware
01:08AM 29.1910 48.5150 328° Northwest 416 479 34,000  Level FlightAware
01:08AM 29.2430 48.4780 328° Northwest 415 478 34,000  Level FlightAware
01:09AM 29.3520 48.4000 328° Northwest 416 479 34,000  Level FlightAware
01:10AM 29.4110 48.3580 328° Northwest 415 478 34,000  Level FlightAware
01:11AM 29.4760 48.3110 328° Northwest 416 479 34,000  Level FlightAware
01:11AM 29.5310 48.2710 328° Northwest 416 479 34,000  Level FlightAware
01:12AM 29.6220 48.2070 329° Northwest 417 480 34,000  Level FlightAware
01:13AM 29.6860 48.1610 328° Northwest 415 478 34,000  Level FlightAware
01:13AM 29.7490 48.1140 327° Northwest 415 478 34,000  Level FlightAware
01:14AM 29.8440 48.0450 328° Northwest 413 475 34,000  Level FlightAware
01:15AM 29.8980 48.0080 329° Northwest 413 475 34,000  Level FlightAware
01:16AM 29.9760 47.9520 328° Northwest 414 476 34,000  Level FlightAware
01:17AM 30.0500 47.8810 320° Northwest 399 459 34,000  Level FlightAware
01:17AM 30.0990 47.8160 311° West 397 457 34,000  Level FlightAware
01:18AM 30.1390 47.7620 311° West 398 458 34,000  Level FlightAware
01:19AM 30.1850 47.6990 310° West 398 458 34,000  Level FlightAware
01:20AM 30.2570 47.6020 311° West 399 459 34,000  Level FlightAware
01:20AM 30.2980 47.5470 311° West 399 459 34,000  Level FlightAware
01:21AM 30.3380 47.4910 310° West 399 459 34,000  Level FlightAware
01:22AM 30.3780 47.4350 310° West 399 459 34,000  Level FlightAware
01:22AM 30.4190 47.3790 310° West 399 459 34,000  Level FlightAware
01:23AM 30.4690 47.3100 310° West 399 459 34,000  Level FlightAware
01:24AM 30.5100 47.2540 310° West 399 459 34,000  Level FlightAware
01:24AM 30.5500 47.1980 310° West 399 459 34,000  Level FlightAware
01:25AM 30.5900 47.1420 310° West 399 459 34,000  Level FlightAware
01:26AM 30.6310 47.0860 310° West 399 459 34,000  Level FlightAware
01:27AM 30.6810 47.0160 310° West 399 459 34,000  Level FlightAware
01:27AM 30.7210 46.9610 310° West 399 459 34,000  Level FlightAware
01:28AM 30.7620 46.9050 310° West 399 459 34,000  Level FlightAware
01:29AM 30.8020 46.8490 310° West 399 459 34,000  Level FlightAware
01:31AM 30.9597 46.6758 317° Northwest  Level Estimated
01:32AM 31.0398 46.5876 317° Northwest  Level Estimated
01:33AM 31.1199 46.4991 317° Northwest  Level Estimated
01:34AM 31.1998 46.4106 317° Northwest  Level Estimated
01:35AM 31.2798 46.3219 317° Northwest  Level Estimated
01:36AM 31.3596 46.2330 316° Northwest  Level Estimated
01:37AM 31.4394 46.1440 316° Northwest  Level Estimated
01:38AM 31.5191 46.0548 316° Northwest  Level Estimated
01:39AM 31.5988 45.9655 316° Northwest  Level Estimated
01:40AM 31.6784 45.8760 316° Northwest  Level Estimated
01:41AM 31.7580 45.7864 316° Northwest  Level Estimated
01:42AM 31.8375 45.6966 316° Northwest  Level Estimated
01:43AM 31.9169 45.6067 316° Northwest  Level Estimated
01:44AM 31.9962 45.5166 316° Northwest  Level Estimated
01:45AM 32.0755 45.4263 316° Northwest  Level Estimated
01:46AM 32.1548 45.3359 316° Northwest  Level Estimated
01:47AM 32.2339 45.2454 316° Northwest  Level Estimated
01:48AM 32.3130 45.1547 316° Northwest  Level Estimated
01:49AM 32.3921 45.0638 316° Northwest  Level Estimated
01:49AM 32.7050 45.0460 316° Northwest 408 470 34,000  Level FlightAware
01:50AM 32.7820 44.9990 333° Northwest 407 468 34,000  Level FlightAware
01:51AM 32.8570 44.9530 333° Northwest 407 468 34,000  Level FlightAware
01:51AM 32.9250 44.9120 333° Northwest 407 468 34,000  Level FlightAware
01:52AM 32.9910 44.8720 333° Northwest 406 467 34,000  Level FlightAware
01:53AM 33.0640 44.8270 333° Northwest 405 466 34,000  Level FlightAware
01:53AM 33.1330 44.7850 333° Northwest 404 465 34,000  Level FlightAware
01:54AM 33.2070 44.7400 333° Northwest 409 471 34,000  Level FlightAware
01:55AM 33.2800 44.7100 341° North 417 480 34,000  Level FlightAware
01:56AM 33.3650 44.6790 343° North 420 483 34,000  Level FlightAware
01:56AM 33.4390 44.6520 343° North 419 482 34,000  Level FlightAware
01:57AM 33.5110 44.6250 343° North 417 480 34,000  Level FlightAware
01:58AM 33.5940 44.5870 339° North 413 475 34,000  Level FlightAware
01:58AM 33.6640 44.5530 338° Northwest 412 474 34,000  Level FlightAware
01:59AM 33.7340 44.5180 337° Northwest 410 472 34,000  Level FlightAware
02:00AM 33.8120 44.4800 338° Northwest 409 471 34,000  Level FlightAware
02:00AM 33.8850 44.4440 338° Northwest 408 470 34,000  Level FlightAware
02:01AM 33.9610 44.4060 337° Northwest 408 470 34,000  Level FlightAware
02:02AM 34.0100 44.3820 338° Northwest 408 470 34,000  Level FlightAware
02:02AM 34.1040 44.3360 338° Northwest 409 471 34,000  Level FlightAware
02:03AM 34.1780 44.2990 338° Northwest 412 474 34,000  Level FlightAware
02:04AM 34.2530 44.2610 337° Northwest 414 476 34,000  Level FlightAware
02:05AM 34.3330 44.2210 338° Northwest 414 476 34,000  Level FlightAware
02:05AM 34.4040 44.1860 338° Northwest 415 478 34,000  Level FlightAware
02:06AM 34.4740 44.1500 337° Northwest 415 478 34,000  Level FlightAware
02:07AM 34.5340 44.1190 337° Northwest 415 478 34,000  Level FlightAware
02:07AM 34.5950 44.0880 337° Northwest 415 478 34,000  Level FlightAware
02:08AM 34.6550 44.0570 337° Northwest 415 478 34,000  Level FlightAware
02:09AM 34.7150 44.0260 337° Northwest 415 478 34,000  Level FlightAware
02:09AM 34.7750 43.9950 337° Northwest 415 478 34,000  Level FlightAware
02:10AM 34.8500 43.9560 337° Northwest 415 478 34,000  Level FlightAware
02:11AM 34.9100 43.9250 337° Northwest 415 478 34,000  Level FlightAware
02:12AM 34.9700 43.8940 337° Northwest 415 478 34,000  Level FlightAware
02:12AM 35.0300 43.8630 337° Northwest 415 478 34,000  Level FlightAware
02:13AM 35.0900 43.8310 336° Northwest 415 478 34,000  Level FlightAware
02:14AM 35.1650 43.7920 337° Northwest 415 478 34,000  Level FlightAware
02:14AM 35.2260 43.7610 337° Northwest 415 478 34,000  Level FlightAware
02:15AM 35.2860 43.7300 337° Northwest 415 478 34,000  Level FlightAware
02:18AM 35.4731 43.4882 314° West  Level Estimated
02:19AM 35.5488 43.3898 313° West  Level Estimated
02:20AM 35.6244 43.2913 313° West  Level Estimated
02:21AM 35.6999 43.1926 313° West  Level Estimated
02:22AM 35.7754 43.0937 313° West  Level Estimated
02:23AM 35.8508 42.9946 313° West  Level Estimated
02:24AM 35.9261 42.8953 313° West  Level Estimated
02:25AM 36.0013 42.7958 313° West  Level Estimated
02:26AM 36.0764 42.6961 313° West  Level Estimated
02:27AM 36.1515 42.5963 313° West  Level Estimated
02:28AM 36.2265 42.4962 313° West  Level Estimated
02:29AM 36.3013 42.3960 313° West  Level Estimated
02:30AM 36.3761 42.2956 313° West  Level Estimated
02:31AM 36.4509 42.1949 313° West  Level Estimated
02:32AM 36.5255 42.0941 313° West  Level Estimated
02:33AM 36.6001 41.9931 313° West  Level Estimated
02:34AM 36.6745 41.8919 313° West  Level Estimated
02:35AM 36.7489 41.7905 312° West  Level Estimated
02:36AM 36.8232 41.6889 312° West  Level Estimated
02:37AM 36.8974 41.5871 312° West  Level Estimated
02:38AM 36.9715 41.4851 312° West  Level Estimated
02:39AM 37.0455 41.3829 312° West  Level Estimated
02:40AM 37.1195 41.2805 312° West  Level Estimated
02:41AM 37.1933 41.1779 312° West  Level Estimated
02:42AM 37.2671 41.0751 312° West  Level Estimated
02:43AM 37.3408 40.9721 312° West  Level Estimated
02:44AM 37.4144 40.8689 312° West  Level Estimated
02:45AM 37.4879 40.7655 312° West  Level Estimated
02:46AM 37.5613 40.6619 312° West  Level Estimated
02:47AM 37.6346 40.5581 312° West  Level Estimated
02:48AM 37.7078 40.4540 312° West  Level Estimated
02:49AM 37.7810 40.3498 312° West  Level Estimated
02:50AM 37.8540 40.2454 312° West  Level Estimated
02:51AM 37.9269 40.1408 311° West  Level Estimated
02:52AM 37.9998 40.0359 311° West  Level Estimated
02:53AM 38.0726 39.9309 311° West  Level Estimated
02:54AM 38.1452 39.8256 311° West  Level Estimated
02:55AM 38.2178 39.7201 311° West  Level Estimated
02:56AM 38.2903 39.6145 311° West  Level Estimated
02:57AM 38.3627 39.5086 311° West  Level Estimated
02:58AM 38.4350 39.4025 311° West  Level Estimated
02:59AM 38.5072 39.2962 311° West  Level Estimated
03:00AM 38.5793 39.1896 311° West  Level Estimated
03:01AM 38.6513 39.0829 311° West  Level Estimated
03:02AM 38.7232 38.9759 311° West  Level Estimated
03:03AM 38.7950 38.8688 311° West  Level Estimated
03:04AM 38.8667 38.7614 311° West  Level Estimated
03:05AM 38.9383 38.6538 311° West  Level Estimated
03:06AM 39.0098 38.5459 311° West  Level Estimated
03:07AM 39.0812 38.4379 310° West  Level Estimated
03:08AM 39.1525 38.3296 310° West  Level Estimated
03:09AM 39.2238 38.2211 310° West  Level Estimated
03:10AM 39.2949 38.1124 310° West  Level Estimated
03:11AM 39.3659 38.0035 310° West  Level Estimated
03:12AM 39.4368 37.8944 310° West  Level Estimated
03:13AM 39.5076 37.7850 310° West  Level Estimated
03:14AM 39.5783 37.6754 310° West  Level Estimated
03:15AM 39.6489 37.5656 310° West  Level Estimated
03:16AM 39.7194 37.4556 310° West  Level Estimated
03:17AM 39.7898 37.3453 310° West  Level Estimated
03:18AM 39.8601 37.2349 310° West  Level Estimated
03:19AM 39.9302 37.1241 310° West  Level Estimated
03:20AM 40.0003 37.0132 310° West  Level Estimated
03:21AM 40.0703 36.9020 309° West  Level Estimated
03:22AM 40.1402 36.7906 309° West  Level Estimated
03:23AM 40.2099 36.6790 309° West  Level Estimated
03:24AM 40.2796 36.5672 309° West  Level Estimated
03:25AM 40.3491 36.4551 309° West  Level Estimated
03:26AM 40.4185 36.3428 309° West  Level Estimated
03:27AM 40.4879 36.2302 309° West  Level Estimated
03:28AM 40.5571 36.1174 309° West  Level Estimated
03:29AM 40.6262 36.0044 309° West  Level Estimated
03:30AM 40.6952 35.8912 309° West  Level Estimated
03:31AM 40.7641 35.7777 309° West  Level Estimated
03:32AM 40.8329 35.6640 309° West  Level Estimated
03:33AM 40.9015 35.5500 309° West  Level Estimated
03:34AM 40.9701 35.4358 309° West  Level Estimated
03:35AM 41.0385 35.3214 308° West  Level Estimated
03:36AM 41.1068 35.2067 308° West  Level Estimated
03:37AM 41.1750 35.0918 308° West  Level Estimated
03:38AM 41.2431 34.9767 308° West  Level Estimated
03:39AM 41.3111 34.8613 308° West  Level Estimated
03:40AM 41.3790 34.7457 308° West  Level Estimated
03:41AM 41.4467 34.6298 308° West  Level Estimated
03:42AM 41.5143 34.5137 308° West  Level Estimated
03:43AM 41.5818 34.3974 308° West  Level Estimated
03:43AM 42.6530 34.2570 308° West 442 509 34,000  Level FlightAware
03:44AM 41.6493 34.2808 308° West  Level Estimated
03:44AM 42.7140 34.1760 316° Northwest 441 507 34,000  Level FlightAware
03:45AM 42.7740 34.0900 314° West 444 511 34,000 420 Level FlightAware
03:45AM 42.8130 33.9860 297° West 447 514 34,600 1,020 Climbing FlightAware
03:46AM 42.8470 33.8820 294° West 449 517 35,400 960 Climbing FlightAware
03:47AM 42.8940 33.7720 300° West 450 518 36,000 420 Climbing FlightAware
03:47AM 42.9360 33.6770 301° West 450 518 36,000  Level FlightAware
03:48AM 42.9850 33.5690 302° West 453 521 36,000  Level FlightAware
03:49AM 43.0300 33.4700 302° West 454 522 36,000  Level FlightAware
03:50AM 43.0740 33.3710 301° West 455 524 36,000  Level FlightAware
03:50AM 43.1220 33.2630 301° West 456 525 36,000  Level FlightAware
03:51AM 43.1670 33.1620 301° West 457 526 36,000  Level FlightAware
03:52AM 43.2170 33.0510 302° West 460 529 36,000  Level FlightAware
03:52AM 43.2610 32.9510 301° West 460 529 36,000  Level FlightAware
03:53AM 43.3110 32.8380 301° West 462 532 36,000  Level FlightAware
03:54AM 43.3540 32.7400 301° West 464 534 36,000  Level FlightAware
03:54AM 43.3980 32.6400 301° West 464 534 36,000  Level FlightAware
03:55AM 43.4470 32.5270 301° West 466 536 36,000  Level FlightAware
03:56AM 43.4930 32.4210 301° West 467 537 36,000  Level FlightAware
03:57AM 43.5430 32.3070 301° West 469 540 36,000  Level FlightAware
03:57AM 43.5870 32.2030 300° West 470 541 36,000  Level FlightAware
03:58AM 43.6370 32.0870 301° West 470 541 36,000  Level FlightAware
03:59AM 43.6800 31.9860 301° West 470 541 36,000  Level FlightAware
03:59AM 43.7250 31.8820 301° West 469 540 36,000  Level FlightAware
04:00AM 43.7750 31.7640 300° West 470 541 36,000  Level FlightAware
04:01AM 43.8180 31.6610 300° West 471 542 36,000  Level FlightAware
04:02AM 43.8680 31.5440 301° West 471 542 36,000  Level FlightAware
04:02AM 43.9100 31.4430 300° West 471 542 36,000  Level FlightAware
04:03AM 43.9550 31.3360 300° West 471 542 36,000  Level FlightAware
04:04AM 44.0030 31.2210 300° West 473 544 36,000  Level FlightAware
04:04AM 44.0480 31.1120 300° West 475 547 36,000  Level FlightAware
04:05AM 44.0920 31.0060 300° West 477 549 36,000  Level FlightAware
04:06AM 44.1400 30.8890 300° West 478 550 36,000  Level FlightAware
04:06AM 44.1830 30.7860 300° West 480 552 36,000  Level FlightAware
04:07AM 44.2340 30.6600 299° West 480 552 36,000  Level FlightAware
04:08AM 44.2740 30.5620 300° West 480 552 36,000  Level FlightAware
04:08AM 44.3180 30.4540 300° West 479 551 36,000  Level FlightAware
04:09AM 44.3670 30.3430 302° West 478 550 36,000  Level FlightAware
04:10AM 44.4380 30.1950 304° West 478 550 36,000  Level FlightAware
04:11AM 44.4820 30.1060 305° West 477 549 36,000  Level FlightAware
04:12AM 44.5440 29.9830 305° West 477 549 36,000  Level FlightAware
04:12AM 44.5870 29.8960 305° West 476 548 36,000  Level FlightAware
04:13AM 44.6470 29.7740 305° West 476 548 36,000  Level FlightAware
04:14AM 44.6950 29.6740 304° West 475 547 36,000  Level FlightAware
04:14AM 44.7460 29.5690 304° West 475 547 36,000  Level FlightAware
04:15AM 44.7990 29.4600 304° West 476 548 36,000  Level FlightAware
04:16AM 44.8520 29.3510 304° West 475 547 36,000  Level FlightAware
04:16AM 44.9110 29.2270 304° West 476 548 36,000  Level FlightAware
04:17AM 44.9460 29.1530 304° West 476 548 36,000  Level FlightAware
04:18AM 45.0050 29.0300 304° West 475 547 36,000  Level FlightAware
04:18AM 45.0540 28.9270 304° West 473 544 36,000  Level FlightAware
04:19AM 45.1280 28.7700 304° West 472 543 36,000  Level FlightAware
04:20AM 45.1730 28.6750 304° West 471 542 36,000  Level FlightAware
04:21AM 45.2300 28.5520 303° West 471 542 36,000  Level FlightAware
04:22AM 45.2800 28.4440 303° West 471 542 36,000  Level FlightAware
04:22AM 45.3270 28.3440 304° West 470 541 36,000  Level FlightAware
04:23AM 45.3750 28.2410 304° West 470 541 36,000  Level FlightAware
04:24AM 45.4510 28.0760 303° West 470 541 36,000  Level FlightAware
04:25AM 45.5000 27.9700 303° West 471 542 36,000  Level FlightAware
04:25AM 45.5410 27.8790 303° West 471 542 36,000  Level FlightAware
04:26AM 45.5870 27.7790 303° West 470 541 36,000  Level FlightAware
04:27AM 45.6410 27.6590 303° West 469 540 36,000  Level FlightAware
04:27AM 45.7000 27.5300 303° West 468 539 36,000  Level FlightAware
04:28AM 45.7480 27.4220 303° West 467 537 36,000  Level FlightAware
04:29AM 45.7970 27.3120 303° West 465 535 36,000  Level FlightAware
04:30AM 45.8450 27.2040 303° West 464 534 36,000  Level FlightAware
04:30AM 45.8930 27.0970 303° West 465 535 36,000  Level FlightAware
04:31AM 45.9600 26.9460 303° West 464 534 36,000  Level FlightAware
04:32AM 45.9970 26.8620 302° West 464 534 36,000  Level FlightAware
04:33AM 46.0510 26.7380 302° West 464 534 36,000  Level FlightAware
04:33AM 46.1000 26.6260 302° West 465 535 36,000  Level FlightAware
04:34AM 46.1490 26.5140 302° West 464 534 36,000  Level FlightAware
04:35AM 46.1950 26.4090 302° West 465 535 36,000  Level FlightAware
04:35AM 46.2430 26.2970 302° West 463 533 36,000  Level FlightAware
04:36AM 46.2870 26.1960 302° West 464 534 36,000  Level FlightAware
04:37AM 46.3540 26.0390 302° West 464 534 36,000  Level FlightAware
04:38AM 46.4030 25.9230 302° West 464 534 36,000  Level FlightAware
04:38AM 46.4430 25.8300 302° West 463 533 36,000  Level FlightAware
04:39AM 46.4990 25.6980 302° West 464 534 36,000  Level FlightAware
04:40AM 46.5370 25.6070 301° West 462 532 36,000  Level FlightAware
04:40AM 46.5840 25.4940 301° West 462 532 36,000  Level FlightAware
04:41AM 46.6370 25.3680 302° West 461 531 36,000  Level FlightAware
04:42AM 46.6850 25.2530 301° West 462 532 36,000  Level FlightAware
04:43AM 46.7330 25.1360 301° West 463 533 36,000  Level FlightAware
04:43AM 46.7800 25.0230 301° West 461 531 36,000  Level FlightAware
04:44AM 46.8350 24.8880 301° West 460 529 36,000  Level FlightAware
04:45AM 46.9000 24.7320 301° West 457 526 36,000  Level FlightAware
04:46AM 46.9470 24.6150 301° West 455 524 36,000  Level FlightAware
04:47AM 46.9890 24.5100 300° West 457 526 36,000  Level FlightAware
04:47AM 47.0380 24.3890 301° West 457 526 36,000  Level FlightAware
04:48AM 47.0690 24.3130 301° West 455 524 36,000  Level FlightAware
04:49AM 47.1360 24.1460 301° West 455 524 36,000  Level FlightAware
04:50AM 47.1880 24.0150 300° West 453 521 36,000  Level FlightAware
04:50AM 47.2300 23.9090 300° West 453 521 36,000  Level FlightAware
04:51AM 47.2760 23.7920 300° West 453 521 36,000  Level FlightAware
04:52AM 47.3160 23.6900 300° West 451 519 36,000  Level FlightAware
04:52AM 47.3610 23.5740 300° West 453 521 36,000  Level FlightAware
04:53AM 47.4030 23.4670 300° West 455 524 36,000  Level FlightAware
04:54AM 47.4440 23.3600 300° West 455 524 36,000  Level FlightAware
04:54AM 47.4850 23.2550 300° West 453 521 36,000  Level FlightAware
04:55AM 47.5340 23.1290 300° West 451 519 36,000  Level FlightAware
04:56AM 47.5770 23.0160 299° West 453 521 36,000  Level FlightAware
04:57AM 47.6240 22.8940 300° West 457 526 36,000  Level FlightAware
04:57AM 47.6650 22.7850 299° West 458 527 36,000  Level FlightAware
04:58AM 47.7070 22.6740 299° West 456 525 36,000  Level FlightAware
04:59AM 47.7530 22.5520 299° West 451 519 36,000  Level FlightAware
04:59AM 47.7930 22.4430 299° West 452 520 36,000  Level FlightAware
05:00AM 47.8390 22.3180 299° West 453 521 36,000  Level FlightAware
05:01AM 47.8660 22.2450 299° West 454 522 36,000  Level FlightAware
05:01AM 47.9180 22.1010 298° West 460 529 36,000  Level FlightAware
05:02AM 47.9650 21.9720 299° West 461 531 36,000  Level FlightAware
05:03AM 48.0060 21.8580 298° West 462 532 36,000  Level FlightAware
05:04AM 48.0530 21.7280 298° West 463 533 36,000  Level FlightAware
05:04AM 48.0940 21.6140 298° West 463 533 36,000  Level FlightAware
05:05AM 48.1370 21.4920 298° West 461 531 36,000  Level FlightAware
05:06AM 48.1770 21.3800 298° West 461 531 36,000  Level FlightAware
05:06AM 48.2160 21.2710 298° West 459 528 36,000  Level FlightAware
05:07AM 48.2620 21.1390 298° West 461 531 36,000  Level FlightAware
05:08AM 48.3030 21.0210 298° West 462 532 36,000  Level FlightAware
05:09AM 48.3470 20.8970 298° West 462 532 36,000  Level FlightAware
05:09AM 48.3820 20.7950 297° West 462 532 36,000  Level FlightAware
05:10AM 48.4300 20.6560 298° West 462 532 36,000  Level FlightAware
05:11AM 48.4690 20.5410 297° West 463 533 36,000  Level FlightAware
05:11AM 48.5080 20.4280 298° West 462 532 36,000  Level FlightAware
05:12AM 48.5510 20.3000 297° West 458 527 36,000  Level FlightAware
05:13AM 48.5860 20.1980 297° West 457 526 36,000  Level FlightAware
05:13AM 48.6330 20.0580 297° West 455 524 36,000  Level FlightAware
05:14AM 48.6710 19.9470 297° West 456 525 36,000  Level FlightAware
05:15AM 48.7090 19.8310 296° West 456 525 36,000  Level FlightAware
05:16AM 48.7510 19.7060 297° West 454 522 36,000  Level FlightAware
05:16AM 48.7890 19.5910 297° West 453 521 36,000  Level FlightAware
05:17AM 48.8250 19.4800 296° West 452 520 36,000  Level FlightAware
05:18AM 48.8680 19.3500 297° West 451 519 36,000  Level FlightAware
05:18AM 48.9050 19.2350 296° West 452 520 36,000  Level FlightAware
05:19AM 48.9480 19.1030 296° West 453 521 36,000  Level FlightAware
05:20AM 48.9830 18.9950 296° West 454 522 36,000  Level FlightAware
05:20AM 49.0210 18.8770 296° West 455 524 36,000  Level FlightAware
05:21AM 49.0620 18.7490 296° West 453 521 36,000  Level FlightAware
05:22AM 49.0980 18.6350 296° West 451 519 36,000  Level FlightAware
05:23AM 49.1400 18.5030 296° West 449 517 36,000  Level FlightAware
05:23AM 49.1760 18.3910 296° West 449 517 36,000  Level FlightAware
05:24AM 49.2160 18.2620 295° West 449 517 36,000  Level FlightAware
05:25AM 49.2490 18.1490 294° West 451 519 36,000  Level FlightAware
05:25AM 49.2750 18.0290 288° West 451 519 36,000  Level FlightAware
05:26AM 49.3030 17.8930 288° West 451 519 36,000  Level FlightAware
05:27AM 49.3280 17.7710 287° West 449 517 36,000  Level FlightAware
05:27AM 49.3530 17.6470 287° West 448 516 36,000  Level FlightAware
05:28AM 49.3810 17.5100 287° West 447 514 36,000  Level FlightAware
05:29AM 49.4060 17.3880 288° West 447 514 36,000  Level FlightAware
05:30AM 49.4320 17.2580 287° West 445 512 36,000  Level FlightAware
05:30AM 49.4580 17.1320 288° West 446 513 36,000  Level FlightAware
05:31AM 49.4810 17.0120 286° West 447 514 36,000  Level FlightAware
05:32AM 49.5090 16.8740 287° West 447 514 36,000  Level FlightAware
05:32AM 49.5320 16.7540 286° West 446 513 36,000  Level FlightAware
05:33AM 49.5580 16.6200 287° West 444 511 36,000  Level FlightAware
05:34AM 49.5820 16.4990 287° West 443 510 36,000  Level FlightAware
05:34AM 49.6040 16.3840 286° West 443 510 36,000  Level FlightAware
05:35AM 49.6310 16.2400 286° West 442 509 36,000  Level FlightAware
05:36AM 49.6540 16.1220 287° West 440 506 36,000  Level FlightAware
05:36AM 49.6760 16.0020 286° West 440 506 36,000  Level FlightAware
05:37AM 49.7000 15.8750 286° West 439 505 36,000  Level FlightAware
05:38AM 49.7240 15.7440 286° West 439 505 36,000  Level FlightAware
05:39AM 49.7490 15.6090 286° West 438 504 36,000  Level FlightAware
05:39AM 49.7710 15.4900 286° West 438 504 36,000  Level FlightAware
05:40AM 49.8020 15.3200 286° West 439 505 36,000  Level FlightAware
05:41AM 49.8230 15.2010 285° West 439 505 36,000  Level FlightAware
05:42AM 49.8480 15.0650 286° West 439 505 36,000  Level FlightAware
05:42AM 49.8690 14.9460 285° West 439 505 36,000  Level FlightAware
05:43AM 49.8930 14.8080 285° West 439 505 36,000  Level FlightAware
05:44AM 49.9150 14.6850 286° West 438 504 36,000  Level FlightAware
05:44AM 49.9380 14.5510 285° West 440 506 36,000  Level FlightAware
05:45AM 49.9550 14.4520 285° West 438 504 36,000  Level FlightAware
05:46AM 49.9790 14.3160 285° West 438 504 36,000  Level FlightAware
05:47AM 50.0020 14.1790 285° West 437 503 36,000  Level FlightAware
05:47AM 50.0240 14.0480 285° West 438 504 36,000  Level FlightAware
05:48AM 50.0420 13.9420 285° West 438 504 36,000  Level FlightAware
05:49AM 50.0670 13.7920 285° West 437 503 36,000  Level FlightAware
05:49AM 50.0870 13.6670 284° West 436 502 36,000  Level FlightAware
05:50AM 50.1090 13.5340 285° West 436 502 36,000  Level FlightAware
05:51AM 50.1290 13.4110 284° West 436 502 36,000  Level FlightAware
05:51AM 50.1470 13.3170 287° West 433 498 36,000  Level FlightAware
05:52AM 50.1900 13.1740 295° West 427 491 36,000  Level FlightAware
05:53AM 50.2270 13.0630 298° West 426 490 36,000  Level FlightAware
05:54AM 50.2690 12.9400 298° West 430 495 36,000  Level FlightAware
05:54AM 50.3030 12.8390 298° West 426 490 36,000  Level FlightAware
05:55AM 50.3420 12.7210 297° West 428 493 36,000  Level FlightAware
05:56AM 50.3860 12.5900 298° West 428 493 36,000  Level FlightAware
05:56AM 50.4220 12.4820 298° West 428 493 36,000  Level FlightAware
05:57AM 50.4630 12.3580 297° West 427 491 36,000  Level FlightAware
05:58AM 50.4990 12.2480 297° West 426 490 36,000  Level FlightAware
05:58AM 50.5340 12.1400 297° West 427 491 36,000  Level FlightAware
05:59AM 50.5750 12.0150 297° West 426 490 36,000  Level FlightAware
06:00AM 50.6110 11.9050 297° West 427 491 36,000  Level FlightAware
06:01AM 50.6500 11.7820 297° West 427 491 36,000  Level FlightAware
06:01AM 50.6850 11.6730 297° West 427 491 36,000  Level FlightAware
06:02AM 50.7220 11.5570 297° West 427 491 36,000  Level FlightAware
06:03AM 50.7610 11.4340 297° West 427 491 36,000  Level FlightAware
06:03AM 50.7960 11.3240 297° West 427 491 36,000  Level FlightAware
06:04AM 50.8310 11.2120 296° West 427 491 36,000  Level FlightAware
06:05AM 50.8720 11.0830 297° West 427 491 36,000  Level FlightAware
06:05AM 50.9050 10.9760 296° West 427 491 36,000  Level FlightAware
06:06AM 50.9400 10.8660 297° West 427 491 36,000  Level FlightAware
06:07AM 50.9790 10.7370 296° West 427 491 36,000  Level FlightAware
06:07AM 51.0130 10.6270 296° West 427 491 36,000  Level FlightAware
06:08AM 51.0520 10.5000 296° West 426 490 36,000  Level FlightAware
06:09AM 51.0830 10.3980 296° West 425 489 36,000  Level FlightAware
06:10AM 51.1240 10.2620 296° West 424 488 36,000  Level FlightAware
06:10AM 51.1610 10.1420 296° West 420 483 36,000  Level FlightAware
06:11AM 51.1950 10.0290 296° West 423 487 36,000  Level FlightAware
06:12AM 51.2330 9.8990 295° West 422 486 36,000  Level FlightAware
06:12AM 51.2660 9.7910 296° West 424 488 36,000  Level FlightAware
06:13AM 51.3070 9.6700 298° West 422 486 36,000  Level FlightAware
06:14AM 51.3500 9.5480 299° West 423 487 36,000  Level FlightAware
06:15AM 51.3890 9.4370 299° West 424 488 36,000  Level FlightAware
06:15AM 51.4280 9.3300 300° West 424 488 36,000  Level FlightAware
06:16AM 51.4700 9.2100 299° West 423 487 36,000  Level FlightAware
06:17AM 51.5090 9.0990 299° West 424 488 36,000  Level FlightAware
06:17AM 51.5470 8.9770 297° West 424 488 36,000  Level FlightAware
06:18AM 51.5750 8.8750 294° West 424 488 36,000  Level FlightAware
06:19AM 51.6140 8.7290 293° West 424 488 36,000  Level FlightAware
06:19AM 51.6450 8.6140 294° West 424 488 36,000  Level FlightAware
06:20AM 51.6740 8.5030 293° West 423 487 36,000  Level FlightAware
06:21AM 51.7090 8.3690 293° West 423 487 36,000  Level FlightAware
06:22AM 51.7390 8.2540 293° West 422 486 36,000  Level FlightAware
06:22AM 51.7690 8.1380 293° West 422 486 36,000  Level FlightAware
06:23AM 51.8000 8.0160 292° West 422 486 36,000  Level FlightAware
06:24AM 51.8310 7.8940 292° West 422 486 36,000  Level FlightAware
06:24AM 51.8660 7.7580 293° West 421 484 36,000  Level FlightAware
06:25AM 51.8940 7.6480 292° West 420 483 36,000  Level FlightAware
06:26AM 51.9290 7.5080 292° West 418 481 36,000  Level FlightAware
06:26AM 51.9560 7.4000 292° West 418 481 36,000  Level FlightAware
06:27AM 51.9860 7.2790 292° West 418 481 36,000  Level FlightAware
06:28AM 52.0150 7.1610 292° West 417 480 36,000  Level FlightAware
06:29AM 52.0480 7.0270 292° West 416 479 36,000  Level FlightAware
06:29AM 52.0790 6.9000 292° West 417 480 36,000  Level FlightAware
06:30AM 52.1070 6.7840 291° West 417 480 36,000  Level FlightAware
06:31AM 52.1350 6.6680 292° West 418 481 36,000  Level FlightAware
06:31AM 52.1680 6.5320 292° West 420 483 36,000  Level FlightAware
06:32AM 52.1960 6.4160 292° West 422 486 36,000  Level FlightAware
06:33AM 52.2240 6.2960 291° West 421 484 36,000  Level FlightAware
06:33AM 52.2520 6.1770 291° West 419 482 36,000  Level FlightAware
06:34AM 52.2830 6.0490 292° West 420 483 36,000  Level FlightAware
06:35AM 52.3140 5.9140 291° West 420 483 36,000  Level FlightAware
06:36AM 52.3420 5.7950 291° West 421 484 36,000 -1,260 Level FlightAware
06:36AM 52.3614 5.6883 291° West 478 550 34,500  Descending FlightAware UK
06:36AM 52.3720 5.6620 291° West 420 483 36,000  Climbing FlightAware
06:37AM 52.3921 5.5647 291° West 478 550 34,500  Descending FlightAware UK
06:37AM 52.3950 5.5650 291° West 420 483 36,000  Climbing FlightAware
06:37AM 52.4101 5.4944 291° West 478 550 34,500  Descending FlightAware UK
06:38AM 52.4260 5.4280 291° West 419 482 36,000  Climbing FlightAware
06:38AM 52.4453 5.3333 291° West 478 550 34,500  Descending FlightAware UK
06:38AM 52.4560 5.2950 291° West 417 480 36,000 1,560 Climbing FlightAware
06:39AM 52.4830 5.1750 290° West 415 478 36,000  Level FlightAware
06:40AM 52.5060 5.0710 290° West 414 476 36,000 -1,200 Level FlightAware
06:40AM 52.5349 4.9448 290° West 476 548 34,500  Descending FlightAware UK
06:40AM 52.5370 4.9340 290° West 414 476 36,000  Climbing FlightAware
06:41AM 52.5561 4.8572 290° West 478 550 34,500  Descending FlightAware UK
06:41AM 52.5640 4.8140 290° West 413 475 36,000  Climbing FlightAware
06:41AM 52.5784 4.7507 290° West 476 548 34,500 -2,700 Descending FlightAware UK
06:42AM 52.5898 4.6976 289° West 476 548 34,500 3,060 Level FlightAware UK
06:42AM 52.5940 4.6750 289° West 413 475 36,000  Climbing FlightAware
06:42AM 52.6166 4.5744 289° West 478 550 34,500  Descending FlightAware UK
06:43AM 52.6200 4.5550 289° West 414 476 36,000  Climbing FlightAware
06:43AM 52.6358 4.4857 289° West 476 548 34,500  Descending FlightAware UK
06:43AM 52.6460 4.4370 289° West 414 476 36,000  Climbing FlightAware
06:44AM 52.6674 4.3440 289° West 478 550 34,500  Descending FlightAware UK
06:44AM 52.6740 4.3120 289° West 413 475 36,000  Climbing FlightAware
06:44AM 52.6948 4.2200 289° West 478 550 34,500  Descending FlightAware UK
06:45AM 52.7020 4.1890 289° West 413 475 36,000  Climbing FlightAware
06:45AM 52.7181 4.1137 289° West 478 550 34,500 -2,280 Descending FlightAware UK
06:45AM 52.7301 4.0607 290° West 478 550 34,500 3,900 Level FlightAware UK
06:45AM 52.7320 4.0510 290° West 413 475 36,000  Climbing FlightAware
06:46AM 52.7538 3.9546 290° West 476 548 34,500  Descending FlightAware UK
06:46AM 52.7590 3.9310 290° West 414 476 36,000 1,620 Climbing FlightAware
06:47AM 52.7870 3.8020 290° West 415 478 36,000 -1,440 Level FlightAware
06:47AM 52.8003 3.7409 290° West 476 548 34,500 -2,520 Descending FlightAware UK
06:47AM 52.8113 3.6869 289° West 476 548 34,500 4,080 Level FlightAware UK
06:47AM 52.8110 3.6830 289° West 414 476 36,000  Climbing FlightAware
06:48AM 52.8291 3.5969 289° West 476 548 34,500  Descending FlightAware UK
06:48AM 52.8360 3.5610 289° West 415 478 36,000  Climbing FlightAware
06:48AM 52.8476 3.5070 289° West 478 550 34,500  Descending FlightAware UK
06:49AM 52.8610 3.4420 289° West 414 476 36,000  Climbing FlightAware
06:49AM 52.8772 3.3639 289° West 478 550 34,500 -2,160 Descending FlightAware UK
06:49AM 52.8884 3.3101 289° West 478 550 34,500 4,260 Level FlightAware UK
06:50AM 52.8890 3.3060 289° West 414 476 36,000  Climbing FlightAware
06:50AM 52.8998 3.2564 289° West 478 550 34,500 -2,760 Descending FlightAware UK
06:50AM 52.9110 3.2026 289° West 478 550 34,500 3,600 Level FlightAware UK
06:50AM 52.9140 3.1870 289° West 413 475 36,000  Climbing FlightAware
06:51AM 52.9337 3.0952 289° West 478 550 34,500  Descending FlightAware UK
06:51AM 52.9420 3.0580 289° West 412 474 36,000  Climbing FlightAware
06:51AM 52.9641 2.9525 289° West 478 550 34,500  Descending FlightAware UK
06:52AM 52.9670 2.9370 289° West 411 473 36,000 1,680 Climbing FlightAware
06:52AM 52.9960 2.8040 290° West 411 473 36,000 -1,440 Level FlightAware
06:53AM 53.0098 2.7399 290° West 478 550 34,500  Descending FlightAware UK
06:53AM 53.0200 2.6920 290° West 410 472 36,000  Climbing FlightAware
06:53AM 53.0364 2.6161 290° West 478 550 34,500  Descending FlightAware UK
06:54AM 53.0500 2.5530 290° West 410 472 36,000  Climbing FlightAware
06:54AM 53.0631 2.4919 290° West 478 550 34,500 -2,580 Descending FlightAware UK
06:54AM 53.0746 2.4387 290° West 478 550 34,500 3,900 Level FlightAware UK
06:54AM 53.0760 2.4330 290° West 410 472 36,000  Climbing FlightAware
06:55AM 53.0901 2.3675 290° West 478 550 34,500 -2,460 Descending FlightAware UK
06:55AM 53.1017 2.3142 290° West 476 548 34,500 3,420 Level FlightAware UK
06:55AM 53.1050 2.3010 290° West 410 472 36,000  Climbing FlightAware
06:55AM 53.1172 2.2432 290° West 478 550 34,500 -2,700 Descending FlightAware UK
06:56AM 53.1289 2.1899 290° West 478 550 34,500 3,720 Level FlightAware UK
06:56AM 53.1310 2.1800 290° West 410 472 36,000  Climbing FlightAware
06:56AM 53.1443 2.1194 290° West 478 550 34,500  Descending FlightAware UK
06:57AM 53.1570 2.0620 290° West 410 472 36,000  Climbing FlightAware
06:57AM 53.1715 1.9952 290° West 476 548 34,500 -2,400 Descending FlightAware UK
06:57AM 53.1834 1.9421 291° West 478 550 34,500 3,600 Level FlightAware UK
06:57AM 53.1860 1.9300 291° West 410 472 36,000 2,280 Climbing FlightAware
06:58AM 53.2083 1.8305 291° West 409 471 36,000 -1,920 Level FlightAware ADS-B
06:58AM 53.2190 1.7833 291° West 478 550 34,500 -2,760 Descending FlightAware UK
06:58AM 53.2290 1.7294 287° West 478 550 34,500 3,060 Level FlightAware UK
06:59AM 53.2320 1.6982 287° West 409 471 36,000 5,280 Climbing FlightAware ADS-B
06:59AM 53.2337 1.6797 279° West 405 466 36,000 -3,600 Level FlightAware ADS-B
06:59AM 53.2394 1.6186 279° West 480 552 34,500  Descending FlightAware UK
06:59AM 53.2436 1.5722 279° West 404 465 36,000  Climbing FlightAware ADS-B
07:00AM 53.2496 1.5088 279° West 478 550 34,500  Descending FlightAware UK
07:00AM 53.2530 1.4733 279° West 402 463 36,000  Climbing FlightAware ADS-B
07:00AM 53.2583 1.4171 279° West 476 548 34,500  Descending FlightAware UK
07:00AM 53.2619 1.3815 279° West 403 464 36,000  Climbing FlightAware ADS-B
07:01AM 53.2673 1.3255 279° West 476 548 34,500  Descending FlightAware UK
07:01AM 53.2717 1.2804 279° West 403 464 36,000 1,680 Climbing FlightAware ADS-B
07:01AM 53.2828 1.1682 279° West 403 464 36,000 -1,440 Level FlightAware ADS-B
07:02AM 53.2910 1.0871 279° West 480 552 34,500  Descending FlightAware UK
07:02AM 53.2925 1.0706 279° West 404 465 36,000  Climbing FlightAware ADS-B
07:02AM 53.2983 1.0134 279° West 478 550 34,500  Descending FlightAware UK
07:03AM 53.3041 0.9543 279° West 402 463 36,000  Climbing FlightAware ADS-B
07:03AM 53.3093 0.9038 279° West 478 550 34,500  Descending FlightAware UK
07:03AM 53.3140 0.8534 279° West 403 464 36,000  Climbing FlightAware ADS-B
07:04AM 53.3209 0.7753 279° West 478 550 34,500 -2,100 Descending FlightAware UK
07:04AM 53.3251 0.7200 277° West 478 550 34,500 2,640 Level FlightAware UK
07:04AM 53.3288 0.6750 277° West 401 461 36,000 1,920 Climbing FlightAware ADS-B
07:05AM 53.3367 0.5813 278° West 402 463 36,000 -1,800 Level FlightAware ADS-B
07:05AM 53.3418 0.5185 278° West 476 548 34,500  Descending FlightAware UK
07:05AM 53.3449 0.4823 278° West 403 464 36,000  Climbing FlightAware ADS-B
07:06AM 53.3510 0.4079 278° West 478 550 34,500  Descending FlightAware UK
07:06AM 53.3530 0.3852 278° West 403 464 36,000 2,340 Climbing FlightAware ADS-B
07:06AM 53.3606 0.2927 278° West 405 466 36,000 -1,740 Level FlightAware ADS-B
07:07AM 53.3663 0.2235 278° West 478 550 34,500  Descending FlightAware UK
07:07AM 53.3693 0.1857 278° West 404 465 36,000 2,040 Climbing FlightAware ADS-B
07:07AM 53.3770 0.0895 278° West 404 465 36,000 -1,920 Level FlightAware ADS-B
07:08AM 53.3811 0.0380 278° West 476 548 34,500  Descending FlightAware UK
07:08AM 53.3853 -0.0153 278° West 402 463 36,000 1,860 Climbing FlightAware ADS-B
07:08AM 53.3926 -0.1085 278° West 403 464 36,000  Level FlightAware ADS-B
07:09AM 53.4002 -0.2062 277° West 404 465 36,000 -1,920 Level FlightAware ADS-B
07:09AM 53.4043 -0.2575 277° West 480 552 34,500  Descending FlightAware UK
07:09AM 53.4076 -0.3020 277° West 403 464 36,000  Climbing FlightAware ADS-B
07:10AM 53.4111 -0.3498 277° West 478 550 34,500  Descending FlightAware UK
07:10AM 53.4175 -0.4332 277° West 402 463 36,000  Climbing FlightAware ADS-B
07:11AM 53.4234 -0.5163 277° West 476 548 34,500 -2,100 Descending FlightAware UK
07:11AM 53.4275 -0.5711 277° West 476 548 34,500 3,180 Level FlightAware UK
07:11AM 53.4301 -0.6025 277° West 402 463 36,000 2,040 Climbing FlightAware ADS-B
07:12AM 53.4373 -0.7002 277° West 404 465 36,000 -1,860 Level FlightAware ADS-B
07:12AM 53.4413 -0.7555 277° West 476 548 34,500 -2,580 Descending FlightAware UK
07:12AM 53.4454 -0.8113 277° West 476 548 34,500 2,100 Level FlightAware UK
07:13AM 53.4490 -0.8690 277° West 406 467 36,000  Climbing FlightAware
07:13AM 53.4559 -0.9606 277° West 478 550 34,500  Descending FlightAware UK
07:13AM 53.4597 -1.0141 277° West 406 467 36,000 1,800 Climbing FlightAware ADS-B
07:14AM 53.4668 -1.1142 277° West 405 466 36,000  Level FlightAware ADS-B
07:14AM 53.4738 -1.2170 277° West 403 464 36,000 -1,560 Level FlightAware ADS-B
07:15AM 53.4791 -1.2955 277° West 478 550 34,500  Descending FlightAware UK
07:15AM 53.4810 -1.3222 277° West 403 464 36,000  Climbing FlightAware ADS-B
07:15AM 53.4841 -1.3698 277° West 480 552 34,500 -2,760 Descending FlightAware UK
07:15AM 53.4879 -1.4249 277° West 480 552 34,500 2,880 Level FlightAware UK
07:16AM 53.4906 -1.4652 277° West 402 463 36,000  Climbing FlightAware ADS-B
07:16AM 53.4988 -1.5914 277° West 478 550 34,500  Descending FlightAware UK
07:17AM 53.5008 -1.6219 277° West 401 461 36,000  Climbing FlightAware ADS-B
07:17AM 53.5048 -1.6839 277° West 476 548 34,500  Descending FlightAware UK
07:17AM 53.5104 -1.7705 277° West 400 460 36,000 1,440 Climbing FlightAware ADS-B
07:18AM 53.5170 -1.8750 276° West 402 463 36,000  Level FlightAware ADS-B
07:18AM 53.5239 -1.9849 276° West 407 468 36,000  Level FlightAware ADS-B
07:19AM 53.5301 -2.0863 276° West 406 467 36,000 -1,800 Level FlightAware ADS-B
07:19AM 53.5340 -2.1489 276° West 480 552 34,500  Descending FlightAware UK
07:20AM 53.5359 -2.1813 276° West 406 467 36,000  Climbing FlightAware ADS-B
07:20AM 53.5407 -2.2615 276° West 480 552 34,500  Descending FlightAware UK
07:20AM 53.5420 -2.2890 276° West 405 466 36,000  Climbing FlightAware
07:21AM 53.5495 -2.4104 276° West 480 552 34,500  Descending FlightAware UK
07:21AM 53.5510 -2.4340 276° West 402 463 36,000  Climbing FlightAware
07:21AM 53.5548 -2.5033 276° West 480 552 34,500  Descending FlightAware UK
07:21AM 53.5566 -2.5338 276° West 401 461 36,000  Climbing FlightAware ADS-B
07:22AM 53.5601 -2.5959 276° West 480 552 34,500  Descending FlightAware UK
07:22AM 53.5623 -2.6350 276° West 400 460 36,000  Climbing FlightAware ADS-B
07:22AM 53.5652 -2.6878 276° West 480 552 34,500  Descending FlightAware UK
07:22AM 53.5670 -2.7130 276° West 398 458 36,000 4,980 Climbing FlightAware
07:23AM 53.5682 -2.7407 274° West 398 458 36,000 -3,240 Level FlightAware ADS-B
07:23AM 53.5723 -2.8165 274° West 480 552 34,500  Descending FlightAware UK
07:23AM 53.5734 -2.8331 274° West 396 456 36,000  Climbing FlightAware ADS-B
07:23AM 53.5764 -2.8891 274° West 478 550 34,500  Descending FlightAware UK
07:24AM 53.5809 -2.9489 274° West 396 456 36,000  Climbing FlightAware ADS-B
07:24AM 53.5902 -3.0346 274° West 476 548 34,500 -1,980 Descending FlightAware UK
07:24AM 53.5965 -3.0890 281° West 478 550 34,500 4,500 Level FlightAware UK
07:24AM 53.5950 -3.0760 281° West 400 460 36,000  Climbing FlightAware
07:25AM 53.6027 -3.1437 281° West 478 550 34,500  Descending FlightAware UK
07:25AM 53.6090 -3.2020 281° West 398 458 36,000  Climbing FlightAware
07:26AM 53.6207 -3.3077 281° West 476 548 34,500  Descending FlightAware UK
07:26AM 53.6240 -3.3370 281° West 399 459 36,000  Climbing FlightAware
07:26AM 53.6310 -3.3982 281° West 476 548 34,500 -600 Descending FlightAware UK
07:27AM 53.6380 -3.4600 281° West 400 460 35,600 -2,040 Climbing FlightAware
07:27AM 53.6475 -3.5439 281° West 474 545 32,900 -2,700 Descending FlightAware UK
07:27AM 53.6520 -3.5800 281° West 399 459 33,800 -3,480 Climbing FlightAware
07:28AM 53.6622 -3.6713 281° West 476 548 30,500 -3,480 Descending FlightAware UK
07:28AM 53.6660 -3.7180 281° West 410 472 31,200 -2,700 Climbing FlightAware
07:28AM 53.6716 -3.7851 281° West 474 545 28,900 -5,340 Descending FlightAware UK
07:29AM 53.6738 -3.8409 274° West 472 543 28,200 1,740 Descending FlightAware UK
07:29AM 53.6740 -3.8450 274° West 400 460 29,600 -3,540 Climbing FlightAware
07:29AM 53.6752 -3.9156 274° West 464 534 26,800 -2,400 Descending FlightAware UK
07:29AM 53.6760 -3.9830 274° West 395 455 27,800 -1,560 Climbing FlightAware
07:30AM 53.6767 -4.0612 274° West 448 516 25,600 -1,740 Descending FlightAware UK
07:30AM 53.6770 -4.0860 274° West 381 438 26,800 -2,820 Climbing FlightAware
07:30AM 53.6771 -4.1497 274° West 444 511 24,200 -6,600 Descending FlightAware UK
07:31AM 53.6775 -4.2037 271° West 444 511 23,200  Descending FlightAware UK
07:31AM 53.6780 -4.2380 271° West 391 450 24,200 -2,520 Climbing FlightAware
07:31AM 53.6784 -4.3127 271° West 438 504 21,700 -4,920 Descending FlightAware UK
07:31AM 53.6787 -4.3665 271° West 434 499 21,200 3,120 Descending FlightAware UK
07:31AM 53.6790 -4.3520 271° West 383 441 22,800 -2,340 Climbing FlightAware
07:32AM 53.6790 -4.4190 271° West 426 490 20,500 -5,640 Descending FlightAware UK
07:32AM 53.6793 -4.4712 271° West 426 490 19,700 3,300 Descending FlightAware UK
07:32AM 53.6790 -4.4500 271° West 377 434 21,600 -2,040 Climbing FlightAware
07:32AM 53.6796 -4.5233 271° West 420 483 19,100 -5,520 Descending FlightAware UK
07:33AM 53.6797 -4.5746 270° West 416 479 18,500 1,020 Descending FlightAware UK
07:33AM 53.6800 -4.6080 270° West 363 418 19,700 -1,680 Climbing FlightAware
07:33AM 53.6801 -4.6758 270° West 406 467 17,500 -3,840 Descending FlightAware UK
07:34AM 53.6803 -4.7235 270° West 390 449 17,300 4,200 Descending FlightAware UK
07:34AM 53.6800 -4.7220 270° West 339 390 18,900 -720 Climbing FlightAware
07:34AM 53.6805 -4.7701 270° West 382 440 17,100 -3,540 Descending FlightAware UK
07:34AM 53.6805 -4.8161 270° West 384 442 16,900 2,040 Descending FlightAware UK
07:34AM 53.6810 -4.8370 270° West 336 387 18,100 -2,400 Climbing FlightAware
07:35AM 53.6806 -4.8940 270° West 392 451 15,700 -5,400 Descending FlightAware UK
07:35AM 53.6806 -4.9417 270° West 398 458 14,800 1,980 Descending FlightAware UK
07:35AM 53.6810 -4.9410 270° West 344 396 16,400 -2,700 Climbing FlightAware
07:35AM 53.6806 -4.9900 270° West 398 458 14,000 -5,460 Descending FlightAware UK
07:36AM 53.6807 -5.0389 270° West 396 456 13,400 2,160 Descending FlightAware UK
07:36AM 53.6810 -5.0460 270° West 343 395 14,900 -1,500 Climbing FlightAware
07:36AM 53.6806 -5.1030 270° West 384 442 12,800 -5,160 Descending FlightAware UK
07:36AM 53.6744 -5.1475 257° West 388 447 11,900 420 Descending FlightAware UK
07:36AM 53.6700 -5.1660 257° West 337 388 13,000 -2,820 Climbing FlightAware
07:37AM 53.6542 -5.2191 257° West 388 447 10,500 -4,920 Descending FlightAware UK
07:37AM 53.6405 -5.2607 241° Southwest 386 444 9,900 3,000 Descending FlightAware UK
07:37AM 53.6410 -5.2580 241° Southwest 333 383 11,500 -1,020 Climbing FlightAware
07:37AM 53.6267 -5.3012 241° Southwest 370 426 9,600 -4,080 Descending FlightAware UK
07:38AM 53.6141 -5.3376 240° Southwest 354 407 9,200 2,040 Descending FlightAware UK
07:38AM 53.6080 -5.3530 240° Southwest 285 328 10,600 -1,440 Climbing FlightAware
07:38AM 53.5948 -5.3930 240° Southwest 308 354 8,500 -1,440 Descending FlightAware UK
07:38AM 53.5940 -5.3960 240° Southwest 257 296 10,000 -1,500 Climbing FlightAware
07:39AM 53.5813 -5.4323 240° Southwest 286 329 7,900 -2,040 Descending FlightAware UK
07:39AM 53.5770 -5.4470 240° Southwest 236 272 9,000 1,080 Climbing FlightAware
07:39AM 53.5680 -5.4710 238° Southwest 231 266 8,400 -5,820 Descending FlightAware
07:39AM 53.5586 -5.4987 238° Southwest 276 318 6,100 -2,640 Descending FlightAware UK
07:39AM 53.5540 -5.5110 238° Southwest 236 272 7,300 -2,220 Climbing FlightAware
07:40AM 53.5417 -5.5472 238° Southwest 276 318 5,000 -2,040 Descending FlightAware UK
07:40AM 53.5380 -5.5590 238° Southwest 236 272 6,300 1,920 Climbing FlightAware
07:40AM 53.5300 -5.5820 240° Southwest 239 275 5,800 -4,500 Descending FlightAware
07:40AM 53.5182 -5.6158 240° Southwest 274 315 3,900 -1,200 Descending FlightAware UK
07:41AM 53.5150 -5.6240 240° Southwest 239 275 5,300 -1,260 Climbing FlightAware
07:41AM 53.5045 -5.6548 240° Southwest 268 308 3,400 -1,200 Descending FlightAware UK
07:41AM 53.4980 -5.6730 240° Southwest 239 275 4,700 2,040 Climbing FlightAware
07:41AM 53.4920 -5.6920 242° Southwest 239 275 4,400 -1,200 Descending FlightAware
07:42AM 53.4770 -5.7360 240° Southwest 238 274 3,900 -900 Descending FlightAware
07:42AM 53.4590 -5.7850 238° Southwest 226 260 3,600 -600 Descending FlightAware
07:43AM 53.4470 -5.8210 241° Southwest 209 241 3,400 -480 Descending FlightAware
07:43AM 53.4320 -5.8620 238° Southwest 190 219 3,200 -420 Descending FlightAware
07:44AM 53.4200 -5.8980 241° Southwest 172 198 3,000 -360 Descending FlightAware
07:44AM 53.4100 -5.9270 240° Southwest 173 199 2,900 -300 Descending FlightAware
07:44AM 53.4050 -5.9460 246° West 177 204 2,800 -240 Descending FlightAware
07:45AM 53.4040 -5.9670 265° West 176 203 2,800  Level FlightAware
07:45AM 53.4060 -6.0000 276° West 175 201 2,800 -360 Level FlightAware
07:45AM 53.4080 -6.0410 275° West 171 197 2,500 -840 Descending FlightAware
07:46AM 53.4110 -6.0790 278° West 158 182 2,000 -900 Descending FlightAware
07:46AM 53.4120 -6.1090 273° West 153 176 1,700 -720 Descending FlightAware
07:47AM 53.4140 -6.1360 277° West 139 160 1,400 -780 Descending FlightAware
07:47AM 53.4160 -6.1660 276° West 140 161 1,000 -840 Descending FlightAware
07:48AM 53.4170 -6.1990 273° West 141 162 600 -720 Descending FlightAware
07:48AM 53.4180 -6.2140 276° West 140 161 500 -180 Descending FlightAware
07:48AM 53.4190 -6.2400 274° West 140 161 500  Level FlightAware
07:51AM 53.4213 -6.2701 277° West  Level Estimated
07:52AM 53.4213 -6.2701 45° Northeast  Level Estimated
07:53AM 53.4213 -6.2701 315° West  Level Estimated
07:54AM 53.4213 -6.2701 45° Northeast  Level Estimated
07:55AM 53.4213 -6.2701 315° West  Level Estimated